createdAt,value
2019-04-23T00:02:13.605Z,3.47
2019-04-23T00:04:42.670Z,9.47
2019-04-23T00:07:27.607Z,7.33
2019-04-23T00:09:51.483Z,5.23
2019-04-23T00:12:26.483Z,4.97
2019-04-23T00:14:57.781Z,5.93
2019-04-23T00:17:14.981Z,9.87
2019-04-23T00:19:41.462Z,5.40
2019-04-23T00:22:36.744Z,5.73
2019-04-23T00:25:30.795Z,6.00
2019-04-23T00:27:38.863Z,4.20
2019-04-23T00:30:00.972Z,4.53
2019-04-23T00:32:37.915Z,5.07
2019-04-23T00:40:02.643Z,8.27
2019-04-23T00:42:38.505Z,7.40
2019-04-23T00:45:17.597Z,3.60
2019-04-23T00:47:38.716Z,5.57
2019-04-23T00:50:12.465Z,5.43
2019-04-23T00:52:32.130Z,3.77
2019-04-23T00:55:10.651Z,5.13
2019-04-23T00:57:35.996Z,9.40
2019-04-23T01:00:10.744Z,4.27
2019-04-23T01:05:06.779Z,3.63
2019-04-23T01:07:33.498Z,4.50
2019-04-23T01:10:10.103Z,3.63
2019-04-23T01:12:38.292Z,6.87
2019-04-23T01:15:04.692Z,3.87
2019-04-23T01:17:39.816Z,3.97
2019-04-23T01:20:08.230Z,5.80
2019-04-23T01:22:23.195Z,4.93
2019-04-23T01:25:09.722Z,3.40
2019-04-23T01:30:28.214Z,6.03
2019-04-23T01:33:05.462Z,6.80
2019-04-23T01:35:54.407Z,3.33
2019-04-23T01:37:58.384Z,5.03
2019-04-23T01:40:31.949Z,4.53
2019-04-23T01:42:59.965Z,3.20
2019-04-23T01:45:26.983Z,5.07
2019-04-23T01:48:12.452Z,5.10
2019-04-23T01:50:48.749Z,4.67
2019-04-23T02:00:36.915Z,7.70
2019-04-23T02:03:01.179Z,5.13
2019-04-23T02:05:38.291Z,4.80
2019-04-23T02:08:03.631Z,8.60
2019-04-23T02:10:39.507Z,5.27
2019-04-23T02:15:49.157Z,7.77
2019-04-23T02:18:10.399Z,3.40
2019-04-23T02:20:39.844Z,5.17
2019-04-23T02:23:28.033Z,4.47
2019-04-23T02:25:54.071Z,4.47
2019-04-23T02:28:25.796Z,5.97
2019-04-23T02:33:35.867Z,6.33
2019-04-23T02:38:43.773Z,6.43
2019-04-23T02:43:35.651Z,7.00
2019-04-23T02:46:02.416Z,8.07
2019-04-23T02:53:42.273Z,6.40
2019-04-23T02:56:05.646Z,7.83
2019-04-23T02:58:42.190Z,4.93
2019-04-23T03:01:15.298Z,7.33
2019-04-23T03:05:57.310Z,5.63
2019-04-23T03:08:27.258Z,8.40
2019-04-23T03:21:52.782Z,5.33
2019-04-23T03:27:12.858Z,5.97
2019-04-23T03:29:35.337Z,4.60
2019-04-23T03:35:08.686Z,7.07
2019-04-23T03:39:37.430Z,4.97
2019-04-23T03:44:29.786Z,5.60
2019-04-23T03:46:51.468Z,5.53
2019-04-23T03:49:19.681Z,6.67
2019-04-23T03:54:30.498Z,7.90
2019-04-23T03:57:07.625Z,5.73
2019-04-23T04:02:20.729Z,5.63
2019-04-23T04:04:29.124Z,6.83
2019-04-23T04:11:45.952Z,6.40
2019-04-23T04:14:32.205Z,6.40
2019-04-23T04:16:53.825Z,9.20
2019-04-23T04:19:38.345Z,7.03
2019-04-23T04:24:37.821Z,9.13
2019-04-23T04:29:21.483Z,5.73
2019-04-23T04:31:54.231Z,8.53
2019-04-23T04:36:57.918Z,7.87
2019-04-23T04:39:21.048Z,6.07
2019-04-23T04:41:52.118Z,7.77
2019-04-23T04:46:45.646Z,8.83
2019-04-23T04:49:20.878Z,6.63
2019-04-23T04:52:02.782Z,6.17
2019-04-23T04:59:08.800Z,6.00
2019-04-23T05:01:36.953Z,6.60
2019-04-23T05:11:48.029Z,5.10
2019-04-23T05:14:20.902Z,6.73
2019-04-23T05:16:38.141Z,8.53
2019-04-23T05:21:49.618Z,7.97
2019-04-23T05:24:08.786Z,8.03
2019-04-23T05:26:27.513Z,7.47
2019-04-23T05:29:06.284Z,5.57
2019-04-23T05:31:33.012Z,9.47
2019-04-23T05:34:02.957Z,9.10
2019-04-23T05:41:48.331Z,6.67
2019-04-23T05:44:12.225Z,9.67
2019-04-23T05:46:40.674Z,9.60
2019-04-23T05:49:09.232Z,7.10
2019-04-23T05:54:24.361Z,10.67
2019-04-23T05:56:32.430Z,7.00
2019-04-23T05:59:05.832Z,5.67
2019-04-23T06:04:10.462Z,6.07
2019-04-23T06:09:10.561Z,8.23
2019-04-23T06:11:45.249Z,10.90
2019-04-23T06:14:06.433Z,6.77
2019-04-23T06:16:36.158Z,8.83
2019-04-23T06:21:34.719Z,9.33
2019-04-23T06:24:14.863Z,8.97
2019-04-23T06:29:08.824Z,9.00
2019-04-23T06:31:34.233Z,12.60
2019-04-23T06:34:10.856Z,9.63
2019-04-23T06:36:32.726Z,13.37
2019-04-23T06:38:57.555Z,9.67
2019-04-23T06:41:34.502Z,7.83
2019-04-23T06:44:09.182Z,7.83
2019-04-23T06:46:39.800Z,11.17
2019-04-23T06:49:00.725Z,11.77
2019-04-23T06:51:40.608Z,11.70
2019-04-23T06:53:59.983Z,12.17
2019-04-23T06:56:40.141Z,10.70
2019-04-23T06:59:00.955Z,12.67
2019-04-23T07:01:27.960Z,15.20
2019-04-23T07:04:03.085Z,11.67
2019-04-23T07:06:48.110Z,12.20
2019-04-23T07:13:55.711Z,11.37
2019-04-23T07:16:28.518Z,8.47
2019-04-23T07:18:57.530Z,9.37
2019-04-23T07:21:21.960Z,7.43
2019-04-23T07:24:05.340Z,12.33
2019-04-23T07:26:40.753Z,10.63
2019-04-23T07:29:03.527Z,9.67
2019-04-23T07:31:34.244Z,9.10
2019-04-23T07:34:01.078Z,12.13
2019-04-23T07:39:44.402Z,8.73
2019-04-23T07:48:03.765Z,11.40
2019-04-23T07:53:01.930Z,11.77
2019-04-23T07:55:25.568Z,8.07
2019-04-23T07:57:58.274Z,8.03
2019-04-23T08:00:27.630Z,8.23
2019-04-23T08:03:01.093Z,9.77
2019-04-23T08:05:36.077Z,10.70
2019-04-23T08:07:54.234Z,5.90
2019-04-23T08:10:21.446Z,6.67
2019-04-23T08:12:49.547Z,9.07
2019-04-23T08:15:21.341Z,10.13
2019-04-23T08:17:46.990Z,8.90
2019-04-23T08:20:14.116Z,8.40
2019-04-23T08:22:45.455Z,8.33
2019-04-23T08:25:37.307Z,7.63
2019-04-23T08:28:09.739Z,7.23
2019-04-23T08:30:36.155Z,9.93
2019-04-23T08:33:04.269Z,8.40
2019-04-23T08:35:36.226Z,11.63
2019-04-23T08:40:33.790Z,11.17
2019-04-23T08:43:31.468Z,8.77
2019-04-23T08:46:05.751Z,10.50
2019-04-23T08:51:25.914Z,5.93
2019-04-23T08:53:50.001Z,7.03
2019-04-23T08:56:07.785Z,13.07
2019-04-23T09:01:07.365Z,8.93
2019-04-23T09:06:15.972Z,8.30
2019-04-23T09:08:32.848Z,7.17
2019-04-23T09:16:17.903Z,5.70
2019-04-23T09:21:03.951Z,7.80
2019-04-23T09:23:46.743Z,9.60
2019-04-23T09:25:57.722Z,8.27
2019-04-23T09:31:12.409Z,6.97
2019-04-23T09:39:12.511Z,9.00
2019-04-23T09:41:48.354Z,7.10
2019-04-23T09:47:28.086Z,8.03
2019-04-23T09:50:06.400Z,12.27
2019-04-23T09:52:30.908Z,6.87
2019-04-23T09:55:04.702Z,8.10
2019-04-23T09:57:32.012Z,10.97
2019-04-23T10:00:05.169Z,9.10
2019-04-23T10:02:22.255Z,7.87
2019-04-23T10:04:50.095Z,12.20
2019-04-23T10:07:13.869Z,9.90
2019-04-23T10:09:32.135Z,9.07
2019-04-23T10:12:01.062Z,10.33
2019-04-23T10:14:30.330Z,10.30
2019-04-23T10:16:58.146Z,9.83
2019-04-23T10:19:26.726Z,10.40
2019-04-23T10:21:55.543Z,10.33
2019-04-23T10:24:23.469Z,12.47
2019-04-23T10:26:52.282Z,8.90
2019-04-23T10:29:23.840Z,8.43
2019-04-23T10:31:51.642Z,15.20
2019-04-23T10:34:21.033Z,11.43
2019-04-23T10:36:49.474Z,11.57
2019-04-23T10:39:25.379Z,11.93
2019-04-23T10:41:48.815Z,8.30
2019-04-23T10:44:30.435Z,7.97
2019-04-23T10:47:50.103Z,9.40
2019-04-23T10:56:05.322Z,10.23
2019-04-23T11:06:02.228Z,5.97
2019-04-23T11:08:29.106Z,7.67
2019-04-23T11:10:51.343Z,10.87
2019-04-23T11:13:38.359Z,10.17
2019-04-23T11:18:52.068Z,7.73
2019-04-23T11:21:13.961Z,8.73
2019-04-23T11:23:34.529Z,8.10
2019-04-23T11:31:15.740Z,10.27
2019-04-23T11:33:42.959Z,7.17
2019-04-23T11:41:11.755Z,10.47
2019-04-23T11:43:37.741Z,11.43
2019-04-23T11:46:25.754Z,7.90
2019-04-23T11:48:50.799Z,9.63
2019-04-23T11:51:38.585Z,11.07
2019-04-23T11:56:13.970Z,13.60
2019-04-23T11:58:43.201Z,11.50
2019-04-23T12:04:24.127Z,9.40
2019-04-23T12:06:45.692Z,13.47
2019-04-23T12:09:40.372Z,13.30
2019-04-23T12:14:37.391Z,8.63
2019-04-23T12:19:52.411Z,8.43
2019-04-23T12:24:58.613Z,11.37
2019-04-23T12:27:09.166Z,13.03
2019-04-23T12:29:38.789Z,10.03
2019-04-23T12:32:38.357Z,13.00
2019-04-23T12:35:01.322Z,8.60
2019-04-23T12:40:24.846Z,11.13
2019-04-23T12:47:49.216Z,12.47
2019-04-23T12:50:38.358Z,12.40
2019-04-23T12:52:46.852Z,10.10
2019-04-23T12:55:21.658Z,13.13
2019-04-23T12:57:42.344Z,9.57
2019-04-23T13:00:19.553Z,16.57
2019-04-23T13:02:46.451Z,14.60
2019-04-23T13:05:21.653Z,10.10
2019-04-23T13:07:46.891Z,9.50
2019-04-23T13:10:14.833Z,9.20
2019-04-23T13:15:15.863Z,9.13
2019-04-23T13:17:52.455Z,7.30
2019-04-23T13:20:19.433Z,11.93
2019-04-23T13:22:49.420Z,10.63
2019-04-23T13:25:47.367Z,9.80
2019-04-23T13:30:49.954Z,9.67
2019-04-23T13:33:24.977Z,14.37
2019-04-23T13:38:28.194Z,12.90
2019-04-23T13:40:43.926Z,14.50
2019-04-23T13:43:19.423Z,16.37
2019-04-23T13:46:00.010Z,12.07
2019-04-23T13:48:18.310Z,14.97
2019-04-23T13:50:49.965Z,10.57
2019-04-23T13:53:28.795Z,12.00
2019-04-23T13:55:42.732Z,10.73
2019-04-23T13:58:27.387Z,15.70
2019-04-23T14:03:26.358Z,13.40
2019-04-23T14:06:10.800Z,10.73
2019-04-23T14:09:21.608Z,17.27
2019-04-23T14:11:03.450Z,13.10
2019-04-23T14:13:44.002Z,8.30
2019-04-23T14:16:13.775Z,18.87
2019-04-23T14:18:51.617Z,13.80
2019-04-23T14:21:17.166Z,13.63
2019-04-23T14:23:55.235Z,14.23
2019-04-23T14:28:44.725Z,17.43
2019-04-23T14:33:46.841Z,11.70
2019-04-23T14:36:19.446Z,12.73
2019-04-23T14:41:12.461Z,20.20
2019-04-23T14:43:38.493Z,11.13
2019-04-23T14:51:13.440Z,15.70
2019-04-23T14:53:40.623Z,11.87
2019-04-23T14:56:13.228Z,15.63
2019-04-23T14:58:42.791Z,14.13
2019-04-23T15:01:24.665Z,18.47
2019-04-23T15:09:06.312Z,9.67
2019-04-23T15:11:20.307Z,12.53
2019-04-23T15:13:36.819Z,16.37
2019-04-23T15:16:22.256Z,14.40
2019-04-23T15:24:03.871Z,17.53
2019-04-23T15:28:37.276Z,16.13
2019-04-23T15:31:33.385Z,12.47
2019-04-23T15:36:59.721Z,11.23
2019-04-23T15:39:13.865Z,21.43
2019-04-23T15:41:34.595Z,13.23
2019-04-23T15:46:39.123Z,14.17
2019-04-23T15:54:00.779Z,11.40
2019-04-23T15:59:02.765Z,18.53
2019-04-23T16:03:27.278Z,11.37
2019-04-23T16:05:55.262Z,14.43
2019-04-23T16:16:29.719Z,13.50
2019-04-23T16:19:07.768Z,12.27
2019-04-23T16:21:57.801Z,11.20
2019-04-23T16:24:06.065Z,15.07
2019-04-23T16:26:37.322Z,14.70
2019-04-23T16:31:34.568Z,13.53
2019-04-23T16:34:13.555Z,13.17
2019-04-23T16:36:41.448Z,12.20
2019-04-23T16:39:07.357Z,13.03
2019-04-23T16:41:40.336Z,10.30
2019-04-23T16:44:11.613Z,17.57
2019-04-23T16:46:33.374Z,16.03
2019-04-23T16:49:14.834Z,14.73
2019-04-23T16:51:34.345Z,15.27
2019-04-23T16:54:10.002Z,16.37
2019-04-23T16:59:21.848Z,13.70
2019-04-23T17:01:39.650Z,16.07
2019-04-23T17:04:12.050Z,15.60
2019-04-23T17:06:31.056Z,16.83
2019-04-23T17:09:00.236Z,17.27
2019-04-23T17:16:34.337Z,13.43
2019-04-23T17:19:03.261Z,12.10
2019-04-23T17:21:32.077Z,14.57
2019-04-23T17:24:14.497Z,15.07
2019-04-23T17:26:29.301Z,13.77
2019-04-23T17:34:09.099Z,11.63
2019-04-23T17:37:03.258Z,14.03
2019-04-23T17:39:31.187Z,16.40
2019-04-23T17:42:24.333Z,19.07
2019-04-23T17:45:06.387Z,17.13
2019-04-23T17:47:37.556Z,16.57
2019-04-23T17:50:13.639Z,17.53
2019-04-23T17:57:37.665Z,17.90
2019-04-23T18:00:19.507Z,16.83
2019-04-23T18:05:06.263Z,13.77
2019-04-23T18:07:43.917Z,13.30
2019-04-23T18:15:15.887Z,13.87
2019-04-23T18:17:35.465Z,12.33
2019-04-23T18:23:04.802Z,20.30
2019-04-23T18:25:30.740Z,12.83
2019-04-23T18:30:56.671Z,24.23
2019-04-23T18:34:08.701Z,15.27
2019-04-23T18:36:21.213Z,12.47
2019-04-23T18:38:52.494Z,18.10
2019-04-23T18:41:13.765Z,21.27
2019-04-23T18:43:52.294Z,23.17
2019-04-23T18:46:22.889Z,19.57
2019-04-23T18:48:58.178Z,22.50
2019-04-23T18:51:13.588Z,11.97
2019-04-23T18:53:48.667Z,25.20
2019-04-23T18:56:19.260Z,15.33
2019-04-23T18:58:57.452Z,15.13
2019-04-23T19:01:22.867Z,17.47
2019-04-23T19:06:41.313Z,17.67
2019-04-23T19:10:11.005Z,18.57
2019-04-23T19:12:36.592Z,12.40
2019-04-23T19:15:09.350Z,19.23
2019-04-23T19:17:46.546Z,19.73
2019-04-23T19:20:04.352Z,14.53
2019-04-23T19:22:38.758Z,17.10
2019-04-23T19:25:07.478Z,16.53
2019-04-23T19:27:38.827Z,10.57
2019-04-23T19:30:18.865Z,14.37
2019-04-23T19:32:48.879Z,18.23
2019-04-23T19:35:23.911Z,25.43
2019-04-23T19:40:10.176Z,24.60
2019-04-23T19:45:17.115Z,16.53
2019-04-23T19:50:13.256Z,10.20
2019-04-23T19:52:57.524Z,16.67
2019-04-23T19:55:08.561Z,14.40
2019-04-23T19:57:42.671Z,14.80
2019-04-23T20:00:10.000Z,14.27
2019-04-23T20:05:10.887Z,17.73
2019-04-23T20:07:46.935Z,16.43
2019-04-23T20:10:30.416Z,16.93
2019-04-23T20:15:00.249Z,22.13
2019-04-23T20:20:02.961Z,15.97
2019-04-23T20:22:45.134Z,12.33
2019-04-23T20:25:20.832Z,18.63
2019-04-23T20:33:03.653Z,15.37
2019-04-23T20:35:16.430Z,15.07
2019-04-23T20:38:19.261Z,11.87
2019-04-23T20:40:26.493Z,12.37
2019-04-23T20:45:20.414Z,15.27
2019-04-23T20:47:51.480Z,18.20
2019-04-23T20:50:16.404Z,11.13
2019-04-23T20:52:48.067Z,15.90
2019-04-23T20:55:49.742Z,16.63
2019-04-23T20:57:58.795Z,15.37
2019-04-23T21:00:43.310Z,19.10
2019-04-23T21:03:30.563Z,15.07
2019-04-23T21:05:33.289Z,19.23
2019-04-23T21:08:14.873Z,12.77
2019-04-23T21:10:51.777Z,14.00
2019-04-23T21:13:16.024Z,21.57
2019-04-23T21:15:46.269Z,19.50
2019-04-23T21:18:17.239Z,12.63
2019-04-23T21:23:21.191Z,16.80
2019-04-23T21:31:00.822Z,14.57
2019-04-23T21:33:26.038Z,10.20
2019-04-23T21:39:04.248Z,16.90
2019-04-23T21:44:10.295Z,11.93
2019-04-23T21:56:33.226Z,13.57
2019-04-23T21:59:06.018Z,14.43
2019-04-23T22:01:32.390Z,13.23
2019-04-23T22:04:08.888Z,12.00
2019-04-23T22:09:04.254Z,12.90
2019-04-23T22:16:37.050Z,11.17
2019-04-23T22:19:10.201Z,8.83
2019-04-23T22:21:33.307Z,13.00
2019-04-23T22:26:28.479Z,12.50
2019-04-23T22:29:03.690Z,11.17
2019-04-23T22:31:29.099Z,13.90
2019-04-23T22:34:02.658Z,14.80
2019-04-23T22:36:22.970Z,10.00
2019-04-23T22:38:58.753Z,15.17
2019-04-23T22:41:25.824Z,12.90
2019-04-23T22:44:03.971Z,10.93
2019-04-23T22:46:24.388Z,14.30
2019-04-23T22:49:17.537Z,19.37
2019-04-23T22:51:41.750Z,11.37
2019-04-23T22:54:03.820Z,14.73
2019-04-23T22:56:39.867Z,11.03
2019-04-23T22:59:10.285Z,12.73
2019-04-23T23:01:42.168Z,15.50
2019-04-23T23:04:16.753Z,13.57
2019-04-23T23:06:48.649Z,11.93
2019-04-23T23:11:43.047Z,12.20
2019-04-23T23:16:35.964Z,9.77
2019-04-23T23:19:19.383Z,14.53
2019-04-23T23:21:43.110Z,13.67
2019-04-23T23:24:08.982Z,12.00
2019-04-23T23:26:44.431Z,14.20
2019-04-23T23:29:02.424Z,14.73
2019-04-23T23:31:39.833Z,16.10
2019-04-23T23:36:44.964Z,15.80
2019-04-23T23:39:06.763Z,11.97
2019-04-23T23:47:00.796Z,14.10
2019-04-23T23:49:02.900Z,15.17
2019-04-23T23:56:39.275Z,13.33
2019-04-23T23:59:12.464Z,12.43
